sensor_id;sensor_type;location;lat;lon;timestamp;temperature;humidity
19060;DHT22;9663;48.996;8.334;2023-04-24T00:00:19;14.60;54.60
19060;DHT22;9663;48.996;8.334;2023-04-24T00:02:45;14.50;54.50
19060;DHT22;9663;48.996;8.334;2023-04-24T00:05:14;14.30;54.40
19060;DHT22;9663;48.996;8.334;2023-04-24T00:07:41;14.50;54.60
19060;DHT22;9663;48.996;8.334;2023-04-24T00:10:08;14.50;54.80
19060;DHT22;9663;48.996;8.334;2023-04-24T00:12:34;14.60;54.70
19060;DHT22;9663;48.996;8.334;2023-04-24T00:15:00;14.60;54.70
19060;DHT22;9663;48.996;8.334;2023-04-24T00:17:26;14.50;54.90
19060;DHT22;9663;48.996;8.334;2023-04-24T00:19:52;14.60;54.80
19060;DHT22;9663;48.996;8.334;2023-04-24T00:22:23;14.70;55.40
19060;DHT22;9663;48.996;8.334;2023-04-24T00:24:50;14.60;54.60
19060;DHT22;9663;48.996;8.334;2023-04-24T00:27:15;14.80;54.50
19060;DHT22;9663;48.996;8.334;2023-04-24T00:29:41;14.80;54.60
19060;DHT22;9663;48.996;8.334;2023-04-24T00:32:07;14.20;54.20
19060;DHT22;9663;48.996;8.334;2023-04-24T00:34:32;14.80;54.70
19060;DHT22;9663;48.996;8.334;2023-04-24T00:36:58;14.70;54.60
19060;DHT22;9663;48.996;8.334;2023-04-24T00:39:24;14.80;54.70
19060;DHT22;9663;48.996;8.334;2023-04-24T00:41:50;14.70;54.60
19060;DHT22;9663;48.996;8.334;2023-04-24T00:44:16;14.80;54.70
19060;DHT22;9663;48.996;8.334;2023-04-24T00:46:42;14.80;54.70
19060;DHT22;9663;48.996;8.334;2023-04-24T00:49:08;14.70;54.80
19060;DHT22;9663;48.996;8.334;2023-04-24T00:51:34;14.80;54.70
19060;DHT22;9663;48.996;8.334;2023-04-24T00:54:02;14.80;54.80
19060;DHT22;9663;48.996;8.334;2023-04-24T00:56:28;14.70;54.70
19060;DHT22;9663;48.996;8.334;2023-04-24T00:58:54;14.60;54.60
19060;DHT22;9663;48.996;8.334;2023-04-24T01:01:21;14.80;54.70
19060;DHT22;9663;48.996;8.334;2023-04-24T01:03:49;14.80;54.80
19060;DHT22;9663;48.996;8.334;2023-04-24T01:06:17;14.80;54.80
19060;DHT22;9663;48.996;8.334;2023-04-24T01:08:45;14.70;54.70
19060;DHT22;9663;48.996;8.334;2023-04-24T01:11:13;14.70;54.80
19060;DHT22;9663;48.996;8.334;2023-04-24T01:13:40;14.70;54.80
19060;DHT22;9663;48.996;8.334;2023-04-24T01:16:06;14.60;54.90
19060;DHT22;9663;48.996;8.334;2023-04-24T01:18:31;15.10;55.10
19060;DHT22;9663;48.996;8.334;2023-04-24T01:20:58;14.70;54.90
19060;DHT22;9663;48.996;8.334;2023-04-24T01:23:28;14.60;55.00
19060;DHT22;9663;48.996;8.334;2023-04-24T01:25:54;13.70;54.60
19060;DHT22;9663;48.996;8.334;2023-04-24T01:28:20;14.70;55.10
19060;DHT22;9663;48.996;8.334;2023-04-24T01:30:46;14.70;55.10
19060;DHT22;9663;48.996;8.334;2023-04-24T01:33:12;14.70;55.10
19060;DHT22;9663;48.996;8.334;2023-04-24T01:35:38;13.20;54.40
19060;DHT22;9663;48.996;8.334;2023-04-24T01:38:05;14.70;55.30
19060;DHT22;9663;48.996;8.334;2023-04-24T01:40:31;14.30;55.10
19060;DHT22;9663;48.996;8.334;2023-04-24T01:42:58;14.90;55.40
19060;DHT22;9663;48.996;8.334;2023-04-24T01:45:24;14.90;55.40
19060;DHT22;9663;48.996;8.334;2023-04-24T01:47:50;16.20;56.10
19060;DHT22;9663;48.996;8.334;2023-04-24T01:50:17;14.80;55.40
19060;DHT22;9663;48.996;8.334;2023-04-24T01:52:43;14.80;55.40
19060;DHT22;9663;48.996;8.334;2023-04-24T01:55:10;14.70;55.30
19060;DHT22;9663;48.996;8.334;2023-04-24T01:57:36;13.40;55.00
19060;DHT22;9663;48.996;8.334;2023-04-24T02:00:04;14.60;55.60
19060;DHT22;9663;48.996;8.334;2023-04-24T02:02:32;14.60;55.70
19060;DHT22;9663;48.996;8.334;2023-04-24T02:04:58;14.50;55.60
19060;DHT22;9663;48.996;8.334;2023-04-24T02:07:23;14.50;55.60
19060;DHT22;9663;48.996;8.334;2023-04-24T02:09:49;14.40;55.70
19060;DHT22;9663;48.996;8.334;2023-04-24T02:12:16;15.00;56.20
19060;DHT22;9663;48.996;8.334;2023-04-24T02:14:43;14.30;55.80
19060;DHT22;9663;48.996;8.334;2023-04-24T02:17:09;14.30;56.00
19060;DHT22;9663;48.996;8.334;2023-04-24T02:19:35;14.40;56.40
19060;DHT22;9663;48.996;8.334;2023-04-24T02:22:00;14.30;56.20
19060;DHT22;9663;48.996;8.334;2023-04-24T02:24:26;14.40;56.50
19060;DHT22;9663;48.996;8.334;2023-04-24T02:26:52;15.10;57.00
19060;DHT22;9663;48.996;8.334;2023-04-24T02:29:17;14.40;56.50
19060;DHT22;9663;48.996;8.334;2023-04-24T02:31:43;14.30;56.40
19060;DHT22;9663;48.996;8.334;2023-04-24T02:34:09;14.40;56.50
19060;DHT22;9663;48.996;8.334;2023-04-24T02:36:34;14.40;56.50
19060;DHT22;9663;48.996;8.334;2023-04-24T02:39:00;13.90;56.50
19060;DHT22;9663;48.996;8.334;2023-04-24T02:41:26;14.30;56.50
19060;DHT22;9663;48.996;8.334;2023-04-24T02:43:57;15.50;57.20
19060;DHT22;9663;48.996;8.334;2023-04-24T02:46:23;14.50;56.70
19060;DHT22;9663;48.996;8.334;2023-04-24T02:48:49;14.20;56.50
19060;DHT22;9663;48.996;8.334;2023-04-24T02:51:14;14.50;56.70
19060;DHT22;9663;48.996;8.334;2023-04-24T02:53:40;14.60;56.70
19060;DHT22;9663;48.996;8.334;2023-04-24T02:56:06;13.90;56.50
19060;DHT22;9663;48.996;8.334;2023-04-24T02:58:31;14.50;57.10
19060;DHT22;9663;48.996;8.334;2023-04-24T03:00:57;14.60;57.50
19060;DHT22;9663;48.996;8.334;2023-04-24T03:03:23;14.50;57.30
19060;DHT22;9663;48.996;8.334;2023-04-24T03:05:49;14.40;57.10
19060;DHT22;9663;48.996;8.334;2023-04-24T03:08:15;14.30;57.20
19060;DHT22;9663;48.996;8.334;2023-04-24T03:10:41;14.20;57.30
19060;DHT22;9663;48.996;8.334;2023-04-24T03:13:06;13.60;57.20
19060;DHT22;9663;48.996;8.334;2023-04-24T03:15:32;13.70;57.10
19060;DHT22;9663;48.996;8.334;2023-04-24T03:17:58;14.10;57.50
19060;DHT22;9663;48.996;8.334;2023-04-24T03:20:24;14.00;57.80
19060;DHT22;9663;48.996;8.334;2023-04-24T03:22:49;13.80;57.60
19060;DHT22;9663;48.996;8.334;2023-04-24T03:25:15;14.00;58.00
19060;DHT22;9663;48.996;8.334;2023-04-24T03:27:41;13.90;57.80
19060;DHT22;9663;48.996;8.334;2023-04-24T03:30:07;13.80;57.90
19060;DHT22;9663;48.996;8.334;2023-04-24T03:32:33;13.80;57.90
19060;DHT22;9663;48.996;8.334;2023-04-24T03:34:59;13.70;57.90
19060;DHT22;9663;48.996;8.334;2023-04-24T03:37:25;13.70;58.10
19060;DHT22;9663;48.996;8.334;2023-04-24T03:39:51;15.80;59.10
19060;DHT22;9663;48.996;8.334;2023-04-24T03:42:17;13.60;58.10
19060;DHT22;9663;48.996;8.334;2023-04-24T03:44:43;14.80;58.70
19060;DHT22;9663;48.996;8.334;2023-04-24T03:47:08;13.60;58.10
19060;DHT22;9663;48.996;8.334;2023-04-24T03:49:34;13.60;58.10
19060;DHT22;9663;48.996;8.334;2023-04-24T03:52:00;13.60;58.70
19060;DHT22;9663;48.996;8.334;2023-04-24T03:54:26;13.60;58.10
19060;DHT22;9663;48.996;8.334;2023-04-24T03:56:52;13.50;57.90
19060;DHT22;9663;48.996;8.334;2023-04-24T03:59:17;12.50;57.50
19060;DHT22;9663;48.996;8.334;2023-04-24T04:01:43;13.20;57.70
19060;DHT22;9663;48.996;8.334;2023-04-24T04:04:09;13.40;57.90
19060;DHT22;9663;48.996;8.334;2023-04-24T04:06:34;13.30;57.80
19060;DHT22;9663;48.996;8.334;2023-04-24T04:09:01;13.30;57.90
19060;DHT22;9663;48.996;8.334;2023-04-24T04:11:28;13.20;57.80
19060;DHT22;9663;48.996;8.334;2023-04-24T04:13:54;13.20;58.10
19060;DHT22;9663;48.996;8.334;2023-04-24T04:16:20;13.10;57.90
19060;DHT22;9663;48.996;8.334;2023-04-24T04:18:46;13.10;57.90
19060;DHT22;9663;48.996;8.334;2023-04-24T04:21:12;13.00;58.00
19060;DHT22;9663;48.996;8.334;2023-04-24T04:23:37;15.20;59.10
19060;DHT22;9663;48.996;8.334;2023-04-24T04:26:03;12.90;58.00
19060;DHT22;9663;48.996;8.334;2023-04-24T04:28:30;12.50;57.90
19060;DHT22;9663;48.996;8.334;2023-04-24T04:30:58;12.80;58.40
19060;DHT22;9663;48.996;8.334;2023-04-24T04:33:24;12.70;58.20
19060;DHT22;9663;48.996;8.334;2023-04-24T04:35:51;12.70;58.20
19060;DHT22;9663;48.996;8.334;2023-04-24T04:38:21;11.60;57.80
19060;DHT22;9663;48.996;8.334;2023-04-24T04:40:46;12.60;58.40
19060;DHT22;9663;48.996;8.334;2023-04-24T04:43:12;11.70;58.00
19060;DHT22;9663;48.996;8.334;2023-04-24T04:45:41;12.60;58.40
19060;DHT22;9663;48.996;8.334;2023-04-24T04:48:08;12.40;58.30
19060;DHT22;9663;48.996;8.334;2023-04-24T04:50:37;11.30;57.80
19060;DHT22;9663;48.996;8.334;2023-04-24T04:53:03;12.30;58.40
19060;DHT22;9663;48.996;8.334;2023-04-24T04:55:29;12.30;58.80
19060;DHT22;9663;48.996;8.334;2023-04-24T04:57:55;12.50;58.90
19060;DHT22;9663;48.996;8.334;2023-04-24T05:00:21;12.30;59.10
19060;DHT22;9663;48.996;8.334;2023-04-24T05:02:49;12.40;58.90
19060;DHT22;9663;48.996;8.334;2023-04-24T05:05:15;12.40;59.20
19060;DHT22;9663;48.996;8.334;2023-04-24T05:07:42;12.40;59.30
19060;DHT22;9663;48.996;8.334;2023-04-24T05:10:08;12.40;59.00
19060;DHT22;9663;48.996;8.334;2023-04-24T05:12:34;12.70;59.30
19060;DHT22;9663;48.996;8.334;2023-04-24T05:15:00;12.60;59.10
19060;DHT22;9663;48.996;8.334;2023-04-24T05:17:25;12.60;59.00
19060;DHT22;9663;48.996;8.334;2023-04-24T05:19:51;12.80;59.00
19060;DHT22;9663;48.996;8.334;2023-04-24T05:22:17;12.80;59.00
19060;DHT22;9663;48.996;8.334;2023-04-24T05:24:45;12.20;58.60
19060;DHT22;9663;48.996;8.334;2023-04-24T05:27:10;13.00;58.80
19060;DHT22;9663;48.996;8.334;2023-04-24T05:29:36;13.70;59.20
19060;DHT22;9663;48.996;8.334;2023-04-24T05:32:02;13.20;58.80
19060;DHT22;9663;48.996;8.334;2023-04-24T05:34:27;13.20;58.70
19060;DHT22;9663;48.996;8.334;2023-04-24T05:36:53;13.30;58.70
19060;DHT22;9663;48.996;8.334;2023-04-24T05:39:19;13.30;58.60
19060;DHT22;9663;48.996;8.334;2023-04-24T05:41:45;13.40;58.70
19060;DHT22;9663;48.996;8.334;2023-04-24T05:44:10;13.40;58.60
19060;DHT22;9663;48.996;8.334;2023-04-24T05:46:36;13.40;58.50
19060;DHT22;9663;48.996;8.334;2023-04-24T05:49:02;13.40;58.70
19060;DHT22;9663;48.996;8.334;2023-04-24T05:51:28;13.40;58.90
19060;DHT22;9663;48.996;8.334;2023-04-24T05:53:54;13.40;58.50
19060;DHT22;9663;48.996;8.334;2023-04-24T05:56:19;13.10;58.30
19060;DHT22;9663;48.996;8.334;2023-04-24T05:58:46;12.40;58.00
19060;DHT22;9663;48.996;8.334;2023-04-24T06:01:12;13.40;58.40
19060;DHT22;9663;48.996;8.334;2023-04-24T06:03:40;13.50;58.30
19060;DHT22;9663;48.996;8.334;2023-04-24T06:06:07;13.50;58.40
19060;DHT22;9663;48.996;8.334;2023-04-24T06:08:34;14.40;58.70
19060;DHT22;9663;48.996;8.334;2023-04-24T06:11:00;14.00;58.50
19060;DHT22;9663;48.996;8.334;2023-04-24T06:13:26;13.60;58.20
19060;DHT22;9663;48.996;8.334;2023-04-24T06:15:52;13.60;58.10
19060;DHT22;9663;48.996;8.334;2023-04-24T06:18:18;13.70;58.30
19060;DHT22;9663;48.996;8.334;2023-04-24T06:20:45;13.70;58.20
19060;DHT22;9663;48.996;8.334;2023-04-24T06:23:11;13.70;58.20
19060;DHT22;9663;48.996;8.334;2023-04-24T06:25:37;13.70;58.20
19060;DHT22;9663;48.996;8.334;2023-04-24T06:28:03;13.80;58.10
19060;DHT22;9663;48.996;8.334;2023-04-24T06:30:30;13.80;58.00
19060;DHT22;9663;48.996;8.334;2023-04-24T06:32:56;13.80;58.00
19060;DHT22;9663;48.996;8.334;2023-04-24T06:35:21;13.80;57.90
19060;DHT22;9663;48.996;8.334;2023-04-24T06:37:47;13.80;58.00
19060;DHT22;9663;48.996;8.334;2023-04-24T06:40:13;13.80;58.00
19060;DHT22;9663;48.996;8.334;2023-04-24T06:42:39;13.80;57.90
19060;DHT22;9663;48.996;8.334;2023-04-24T06:45:05;13.00;57.60
19060;DHT22;9663;48.996;8.334;2023-04-24T06:47:31;13.90;57.90
19060;DHT22;9663;48.996;8.334;2023-04-24T06:49:57;13.80;58.00
19060;DHT22;9663;48.996;8.334;2023-04-24T06:52:24;14.30;58.40
19060;DHT22;9663;48.996;8.334;2023-04-24T06:54:50;14.10;58.20
19060;DHT22;9663;48.996;8.334;2023-04-24T06:57:15;14.10;58.00
19060;DHT22;9663;48.996;8.334;2023-04-24T06:59:41;12.70;57.10
19060;DHT22;9663;48.996;8.334;2023-04-24T07:02:08;14.30;57.80
19060;DHT22;9663;48.996;8.334;2023-04-24T07:04:33;13.90;57.30
19060;DHT22;9663;48.996;8.334;2023-04-24T07:06:59;14.30;57.40
19060;DHT22;9663;48.996;8.334;2023-04-24T07:09:25;14.40;57.50
19060;DHT22;9663;48.996;8.334;2023-04-24T07:11:52;14.40;57.40
19060;DHT22;9663;48.996;8.334;2023-04-24T07:14:19;14.40;57.40
19060;DHT22;9663;48.996;8.334;2023-04-24T07:16:46;15.20;57.60
19060;DHT22;9663;48.996;8.334;2023-04-24T07:19:12;14.50;57.30
19060;DHT22;9663;48.996;8.334;2023-04-24T07:21:39;14.50;57.20
19060;DHT22;9663;48.996;8.334;2023-04-24T07:24:05;15.30;57.50
19060;DHT22;9663;48.996;8.334;2023-04-24T07:26:30;14.40;57.00
19060;DHT22;9663;48.996;8.334;2023-04-24T07:28:57;14.60;57.00
19060;DHT22;9663;48.996;8.334;2023-04-24T07:31:22;14.60;56.90
19060;DHT22;9663;48.996;8.334;2023-04-24T07:33:48;14.70;57.00
19060;DHT22;9663;48.996;8.334;2023-04-24T07:36:14;14.80;57.00
19060;DHT22;9663;48.996;8.334;2023-04-24T07:38:44;15.00;57.20
19060;DHT22;9663;48.996;8.334;2023-04-24T07:41:11;14.60;57.00
19060;DHT22;9663;48.996;8.334;2023-04-24T07:43:38;15.20;56.60
19060;DHT22;9663;48.996;8.334;2023-04-24T07:46:03;17.30;57.30
19060;DHT22;9663;48.996;8.334;2023-04-24T07:48:29;14.80;55.70
19060;DHT22;9663;48.996;8.334;2023-04-24T07:50:55;15.40;55.70
19060;DHT22;9663;48.996;8.334;2023-04-24T07:53:20;15.40;55.40
19060;DHT22;9663;48.996;8.334;2023-04-24T07:55:46;15.30;54.70
19060;DHT22;9663;48.996;8.334;2023-04-24T07:58:12;15.20;54.90
19060;DHT22;9663;48.996;8.334;2023-04-24T08:00:37;15.10;54.80
19060;DHT22;9663;48.996;8.334;2023-04-24T08:03:03;15.00;54.90
19060;DHT22;9663;48.996;8.334;2023-04-24T08:05:29;14.80;55.10
19060;DHT22;9663;48.996;8.334;2023-04-24T08:07:55;13.30;54.00
19060;DHT22;9663;48.996;8.334;2023-04-24T08:10:22;14.60;55.50
19060;DHT22;9663;48.996;8.334;2023-04-24T08:12:48;14.50;55.70
19060;DHT22;9663;48.996;8.334;2023-04-24T08:15:14;15.60;56.50
19060;DHT22;9663;48.996;8.334;2023-04-24T08:17:40;14.30;56.10
19060;DHT22;9663;48.996;8.334;2023-04-24T08:20:07;15.70;56.40
19060;DHT22;9663;48.996;8.334;2023-04-24T08:22:39;14.90;56.00
19060;DHT22;9663;48.996;8.334;2023-04-24T08:25:09;15.00;55.90
19060;DHT22;9663;48.996;8.334;2023-04-24T08:27:36;15.40;55.80
19060;DHT22;9663;48.996;8.334;2023-04-24T08:30:05;15.00;55.40
19060;DHT22;9663;48.996;8.334;2023-04-24T08:32:32;15.10;55.40
19060;DHT22;9663;48.996;8.334;2023-04-24T08:34:58;15.00;55.30
19060;DHT22;9663;48.996;8.334;2023-04-24T08:37:26;15.60;55.60
19060;DHT22;9663;48.996;8.334;2023-04-24T08:39:52;14.90;55.20
19060;DHT22;9663;48.996;8.334;2023-04-24T08:42:19;15.50;55.60
19060;DHT22;9663;48.996;8.334;2023-04-24T08:44:46;14.70;55.40
19060;DHT22;9663;48.996;8.334;2023-04-24T08:47:15;14.60;55.40
19060;DHT22;9663;48.996;8.334;2023-04-24T08:49:41;14.60;55.80
19060;DHT22;9663;48.996;8.334;2023-04-24T08:52:08;14.70;56.20
19060;DHT22;9663;48.996;8.334;2023-04-24T08:54:35;13.80;56.10
19060;DHT22;9663;48.996;8.334;2023-04-24T08:57:02;15.00;56.70
19060;DHT22;9663;48.996;8.334;2023-04-24T08:59:31;14.00;56.10
19060;DHT22;9663;48.996;8.334;2023-04-24T09:01:59;15.50;56.50
19060;DHT22;9663;48.996;8.334;2023-04-24T09:04:25;15.90;56.20
19060;DHT22;9663;48.996;8.334;2023-04-24T09:06:57;17.40;56.30
19060;DHT22;9663;48.996;8.334;2023-04-24T09:09:24;16.00;55.30
19060;DHT22;9663;48.996;8.334;2023-04-24T09:11:51;16.10;55.10
19060;DHT22;9663;48.996;8.334;2023-04-24T09:14:20;16.20;54.90
19060;DHT22;9663;48.996;8.334;2023-04-24T09:16:46;16.20;54.70
19060;DHT22;9663;48.996;8.334;2023-04-24T09:19:13;16.20;54.50
19060;DHT22;9663;48.996;8.334;2023-04-24T09:21:38;16.20;54.20
19060;DHT22;9663;48.996;8.334;2023-04-24T09:24:08;16.70;54.10
19060;DHT22;9663;48.996;8.334;2023-04-24T09:26:43;16.20;53.70
19060;DHT22;9663;48.996;8.334;2023-04-24T09:29:15;15.60;53.30
19060;DHT22;9663;48.996;8.334;2023-04-24T09:31:45;16.10;53.40
19060;DHT22;9663;48.996;8.334;2023-04-24T09:34:11;16.00;53.50
19060;DHT22;9663;48.996;8.334;2023-04-24T09:36:42;15.90;52.90
19060;DHT22;9663;48.996;8.334;2023-04-24T09:39:10;15.80;53.10
19060;DHT22;9663;48.996;8.334;2023-04-24T09:41:51;15.70;52.90
19060;DHT22;9663;48.996;8.334;2023-04-24T09:46:59;15.70;53.20
19060;DHT22;9663;48.996;8.334;2023-04-24T09:49:30;15.70;53.40
19060;DHT22;9663;48.996;8.334;2023-04-24T09:52:06;15.90;53.50
19060;DHT22;9663;48.996;8.334;2023-04-24T09:54:35;16.10;53.80
19060;DHT22;9663;48.996;8.334;2023-04-24T09:57:02;15.80;54.00
19060;DHT22;9663;48.996;8.334;2023-04-24T09:59:28;16.40;54.10
19060;DHT22;9663;48.996;8.334;2023-04-24T10:01:55;16.10;53.80
19060;DHT22;9663;48.996;8.334;2023-04-24T10:04:24;16.40;53.70
19060;DHT22;9663;48.996;8.334;2023-04-24T10:06:53;16.50;53.80
19060;DHT22;9663;48.996;8.334;2023-04-24T10:09:22;16.40;53.50
19060;DHT22;9663;48.996;8.334;2023-04-24T10:11:51;16.60;53.90
19060;DHT22;9663;48.996;8.334;2023-04-24T10:14:24;16.70;53.10
19060;DHT22;9663;48.996;8.334;2023-04-24T10:16:53;17.00;52.70
19060;DHT22;9663;48.996;8.334;2023-04-24T10:19:25;16.70;52.30
19060;DHT22;9663;48.996;8.334;2023-04-24T10:21:52;16.70;52.30
19060;DHT22;9663;48.996;8.334;2023-04-24T10:24:19;16.70;52.20
19060;DHT22;9663;48.996;8.334;2023-04-24T10:26:48;17.50;52.40
19060;DHT22;9663;48.996;8.334;2023-04-24T10:29:17;18.00;52.40
19060;DHT22;9663;48.996;8.334;2023-04-24T10:31:44;16.30;51.30
19060;DHT22;9663;48.996;8.334;2023-04-24T10:34:15;16.10;51.50
19060;DHT22;9663;48.996;8.334;2023-04-24T10:36:46;16.30;51.90
19060;DHT22;9663;48.996;8.334;2023-04-24T10:39:16;14.70;51.50
19060;DHT22;9663;48.996;8.334;2023-04-24T10:41:44;15.70;52.30
19060;DHT22;9663;48.996;8.334;2023-04-24T10:44:13;15.70;52.50
19060;DHT22;9663;48.996;8.334;2023-04-24T10:46:44;15.60;52.70
19060;DHT22;9663;48.996;8.334;2023-04-24T10:49:13;15.50;52.80
19060;DHT22;9663;48.996;8.334;2023-04-24T10:59:44;15.40;52.90
19060;DHT22;9663;48.996;8.334;2023-04-24T11:02:09;15.40;53.10
19060;DHT22;9663;48.996;8.334;2023-04-24T11:04:36;15.40;53.00
19060;DHT22;9663;48.996;8.334;2023-04-24T11:07:04;15.40;53.10
19060;DHT22;9663;48.996;8.334;2023-04-24T11:09:31;15.30;53.20
19060;DHT22;9663;48.996;8.334;2023-04-24T11:12:08;15.30;53.30
19060;DHT22;9663;48.996;8.334;2023-04-24T11:17:32;15.30;53.40
19060;DHT22;9663;48.996;8.334;2023-04-24T11:22:34;15.30;53.30
19060;DHT22;9663;48.996;8.334;2023-04-24T11:25:04;16.70;53.90
19060;DHT22;9663;48.996;8.334;2023-04-24T11:27:41;15.30;53.30
19060;DHT22;9663;48.996;8.334;2023-04-24T11:30:09;16.90;54.30
19060;DHT22;9663;48.996;8.334;2023-04-24T11:32:38;15.60;53.90
19060;DHT22;9663;48.996;8.334;2023-04-24T11:35:17;15.50;53.70
19060;DHT22;9663;48.996;8.334;2023-04-24T11:37:48;15.50;53.50
19060;DHT22;9663;48.996;8.334;2023-04-24T11:40:17;15.60;53.50
19060;DHT22;9663;48.996;8.334;2023-04-24T11:42:49;16.20;53.70
19060;DHT22;9663;48.996;8.334;2023-04-24T11:45:25;15.50;53.50
19060;DHT22;9663;48.996;8.334;2023-04-24T11:47:53;15.40;53.60
19060;DHT22;9663;48.996;8.334;2023-04-24T11:50:21;15.40;53.80
19060;DHT22;9663;48.996;8.334;2023-04-24T11:52:49;15.30;53.80
19060;DHT22;9663;48.996;8.334;2023-04-24T11:57:50;15.50;54.40
19060;DHT22;9663;48.996;8.334;2023-04-24T12:00:19;15.50;54.70
19060;DHT22;9663;48.996;8.334;2023-04-24T12:02:50;15.80;55.30
19060;DHT22;9663;48.996;8.334;2023-04-24T12:05:35;16.40;55.90
19060;DHT22;9663;48.996;8.334;2023-04-24T12:08:01;17.30;54.60
19060;DHT22;9663;48.996;8.334;2023-04-24T12:10:28;18.10;55.40
19060;DHT22;9663;48.996;8.334;2023-04-24T12:12:56;19.10;54.50
19060;DHT22;9663;48.996;8.334;2023-04-24T12:15:24;19.70;53.30
19060;DHT22;9663;48.996;8.334;2023-04-24T12:17:51;21.20;52.20
19060;DHT22;9663;48.996;8.334;2023-04-24T12:20:30;21.10;50.90
19060;DHT22;9663;48.996;8.334;2023-04-24T12:22:58;20.70;49.50
19060;DHT22;9663;48.996;8.334;2023-04-24T12:25:27;20.20;49.60
19060;DHT22;9663;48.996;8.334;2023-04-24T12:30:30;19.40;48.60
19060;DHT22;9663;48.996;8.334;2023-04-24T12:32:59;19.50;49.70
19060;DHT22;9663;48.996;8.334;2023-04-24T12:35:28;20.70;50.40
19060;DHT22;9663;48.996;8.334;2023-04-24T12:37:55;19.90;50.20
19060;DHT22;9663;48.996;8.334;2023-04-24T12:40:22;20.10;50.20
19060;DHT22;9663;48.996;8.334;2023-04-24T12:42:51;21.90;50.20
19060;DHT22;9663;48.996;8.334;2023-04-24T12:45:18;20.40;49.10
19060;DHT22;9663;48.996;8.334;2023-04-24T12:47:45;20.80;48.40
19060;DHT22;9663;48.996;8.334;2023-04-24T12:50:13;20.30;47.80
19060;DHT22;9663;48.996;8.334;2023-04-24T12:52:40;20.50;47.30
19060;DHT22;9663;48.996;8.334;2023-04-24T12:55:07;20.30;47.80
19060;DHT22;9663;48.996;8.334;2023-04-24T12:57:35;21.30;49.00
19060;DHT22;9663;48.996;8.334;2023-04-24T13:00:04;20.80;47.50
19060;DHT22;9663;48.996;8.334;2023-04-24T13:02:31;20.90;46.30
19060;DHT22;9663;48.996;8.334;2023-04-24T13:04:58;20.20;45.50
19060;DHT22;9663;48.996;8.334;2023-04-24T13:07:24;19.90;46.00
19060;DHT22;9663;48.996;8.334;2023-04-24T13:09:51;19.50;46.00
19060;DHT22;9663;48.996;8.334;2023-04-24T13:12:19;19.20;47.00
19060;DHT22;9663;48.996;8.334;2023-04-24T13:14:45;18.50;47.20
19060;DHT22;9663;48.996;8.334;2023-04-24T13:17:11;18.80;48.60
19060;DHT22;9663;48.996;8.334;2023-04-24T13:19:40;19.00;49.80
19060;DHT22;9663;48.996;8.334;2023-04-24T13:22:08;19.50;49.20
19060;DHT22;9663;48.996;8.334;2023-04-24T13:24:35;19.20;48.70
19060;DHT22;9663;48.996;8.334;2023-04-24T13:27:01;20.30;48.20
19060;DHT22;9663;48.996;8.334;2023-04-24T13:29:27;19.80;47.10
19060;DHT22;9663;48.996;8.334;2023-04-24T13:31:54;19.00;46.60
19060;DHT22;9663;48.996;8.334;2023-04-24T13:34:21;20.50;47.40
19060;DHT22;9663;48.996;8.334;2023-04-24T13:36:48;21.60;47.70
19060;DHT22;9663;48.996;8.334;2023-04-24T13:39:15;20.50;46.90
19060;DHT22;9663;48.996;8.334;2023-04-24T13:41:41;21.80;47.30
19060;DHT22;9663;48.996;8.334;2023-04-24T13:44:07;21.40;47.40
19060;DHT22;9663;48.996;8.334;2023-04-24T13:46:32;21.40;46.70
19060;DHT22;9663;48.996;8.334;2023-04-24T13:48:58;19.90;45.90
19060;DHT22;9663;48.996;8.334;2023-04-24T13:51:27;20.60;46.40
19060;DHT22;9663;48.996;8.334;2023-04-24T13:53:53;19.40;45.80
19060;DHT22;9663;48.996;8.334;2023-04-24T13:56:19;18.90;46.30
19060;DHT22;9663;48.996;8.334;2023-04-24T13:58:45;20.20;47.80
19060;DHT22;9663;48.996;8.334;2023-04-24T14:01:12;18.40;47.40
19060;DHT22;9663;48.996;8.334;2023-04-24T14:03:38;18.70;48.00
19060;DHT22;9663;48.996;8.334;2023-04-24T14:06:04;18.10;47.90
19060;DHT22;9663;48.996;8.334;2023-04-24T14:08:31;17.20;47.70
19060;DHT22;9663;48.996;8.334;2023-04-24T14:10:58;17.80;47.80
19060;DHT22;9663;48.996;8.334;2023-04-24T14:13:24;17.60;48.00
19060;DHT22;9663;48.996;8.334;2023-04-24T14:15:51;17.40;47.90
19060;DHT22;9663;48.996;8.334;2023-04-24T14:18:18;17.30;49.50
19060;DHT22;9663;48.996;8.334;2023-04-24T14:20:44;17.20;49.10
19060;DHT22;9663;48.996;8.334;2023-04-24T14:23:10;17.40;50.90
19060;DHT22;9663;48.996;8.334;2023-04-24T14:25:39;18.00;51.70
19060;DHT22;9663;48.996;8.334;2023-04-24T14:28:06;19.10;51.40
19060;DHT22;9663;48.996;8.334;2023-04-24T14:30:32;19.20;49.90
19060;DHT22;9663;48.996;8.334;2023-04-24T14:32:58;19.80;50.70
19060;DHT22;9663;48.996;8.334;2023-04-24T14:35:24;19.90;49.40
19060;DHT22;9663;48.996;8.334;2023-04-24T14:37:51;20.40;49.90
19060;DHT22;9663;48.996;8.334;2023-04-24T14:40:16;21.20;50.60
19060;DHT22;9663;48.996;8.334;2023-04-24T14:42:42;22.10;49.70
19060;DHT22;9663;48.996;8.334;2023-04-24T14:45:08;22.20;48.90
19060;DHT22;9663;48.996;8.334;2023-04-24T14:47:35;23.00;47.70
19060;DHT22;9663;48.996;8.334;2023-04-24T14:50:02;24.10;46.40
19060;DHT22;9663;48.996;8.334;2023-04-24T14:52:28;22.00;44.20
19060;DHT22;9663;48.996;8.334;2023-04-24T14:54:53;22.60;44.20
19060;DHT22;9663;48.996;8.334;2023-04-24T14:57:19;22.40;44.10
19060;DHT22;9663;48.996;8.334;2023-04-24T14:59:45;21.80;43.80
19060;DHT22;9663;48.996;8.334;2023-04-24T15:02:10;21.40;43.90
19060;DHT22;9663;48.996;8.334;2023-04-24T15:04:36;21.00;44.90
19060;DHT22;9663;48.996;8.334;2023-04-24T15:07:02;20.60;45.00
19060;DHT22;9663;48.996;8.334;2023-04-24T15:09:27;20.30;45.30
19060;DHT22;9663;48.996;8.334;2023-04-24T15:11:53;21.40;46.30
19060;DHT22;9663;48.996;8.334;2023-04-24T15:14:19;19.80;46.00
19060;DHT22;9663;48.996;8.334;2023-04-24T15:16:45;19.60;46.20
19060;DHT22;9663;48.996;8.334;2023-04-24T15:19:11;19.50;46.60
19060;DHT22;9663;48.996;8.334;2023-04-24T15:21:37;19.40;46.60
19060;DHT22;9663;48.996;8.334;2023-04-24T15:24:06;19.90;46.80
19060;DHT22;9663;48.996;8.334;2023-04-24T15:26:32;19.00;46.40
19060;DHT22;9663;48.996;8.334;2023-04-24T15:28:57;18.70;46.20
19060;DHT22;9663;48.996;8.334;2023-04-24T15:31:23;19.00;46.70
19060;DHT22;9663;48.996;8.334;2023-04-24T15:33:51;18.60;46.90
19060;DHT22;9663;48.996;8.334;2023-04-24T15:36:18;17.80;47.10
19060;DHT22;9663;48.996;8.334;2023-04-24T15:38:44;17.70;47.30
19060;DHT22;9663;48.996;8.334;2023-04-24T15:41:10;16.50;47.10
19060;DHT22;9663;48.996;8.334;2023-04-24T15:43:37;17.00;47.70
19060;DHT22;9663;48.996;8.334;2023-04-24T15:46:04;17.00;47.90
19060;DHT22;9663;48.996;8.334;2023-04-24T15:48:31;18.00;48.80
19060;DHT22;9663;48.996;8.334;2023-04-24T15:50:57;15.40;47.80
19060;DHT22;9663;48.996;8.334;2023-04-24T15:53:24;16.40;48.60
19060;DHT22;9663;48.996;8.334;2023-04-24T15:55:51;16.40;48.90
19060;DHT22;9663;48.996;8.334;2023-04-24T15:58:18;16.30;49.20
19060;DHT22;9663;48.996;8.334;2023-04-24T16:00:46;15.20;49.00
19060;DHT22;9663;48.996;8.334;2023-04-24T16:03:12;16.20;49.80